createdAt,value
2022-11-05T00:02:11.560Z,6.64
2022-11-05T00:07:40.493Z,6.64
2022-11-05T00:13:02.301Z,6.65
2022-11-05T00:18:05.188Z,6.61
2022-11-05T00:23:27.023Z,6.55
2022-11-05T00:28:31.098Z,6.51
2022-11-05T00:33:33.913Z,6.48
2022-11-05T00:38:37.661Z,6.40
2022-11-05T00:43:59.248Z,6.36
2022-11-05T00:49:20.399Z,6.33
2022-11-05T00:54:23.199Z,6.30
2022-11-05T00:59:26.014Z,6.30
2022-11-05T01:04:28.852Z,6.33
2022-11-05T01:09:32.207Z,6.28
2022-11-05T01:14:35.395Z,6.21
2022-11-05T01:19:39.553Z,6.17
2022-11-05T01:24:42.421Z,6.15
2022-11-05T01:29:45.310Z,6.12
2022-11-05T01:34:48.195Z,6.08
2022-11-05T01:39:51.058Z,6.09
2022-11-05T01:45:09.263Z,6.10
2022-11-05T01:50:43.014Z,6.09
2022-11-05T01:56:18.525Z,6.06
2022-11-05T02:01:22.045Z,6.06
2022-11-05T02:06:27.605Z,6.05
2022-11-05T02:11:30.848Z,6.01
2022-11-05T02:17:04.058Z,6.00
2022-11-05T02:22:21.704Z,6.02
2022-11-05T02:27:36.452Z,6.03
2022-11-05T02:32:55.753Z,6.00
2022-11-05T02:38:09.339Z,5.98
2022-11-05T02:43:29.719Z,5.99
2022-11-05T02:48:58.037Z,5.98
2022-11-05T02:54:20.704Z,5.97
2022-11-05T02:59:23.529Z,5.96
2022-11-05T03:04:26.899Z,5.97
2022-11-05T03:09:35.650Z,5.95
2022-11-05T03:14:54.014Z,5.98
2022-11-05T03:20:05.758Z,6.03
2022-11-05T03:25:15.186Z,6.02
2022-11-05T03:30:19.123Z,5.98
2022-11-05T03:35:29.684Z,5.95
2022-11-05T03:40:36.135Z,5.95
2022-11-05T03:45:46.364Z,5.95
2022-11-05T03:51:01.386Z,5.91
2022-11-05T03:56:13.139Z,5.91
2022-11-05T04:01:16.448Z,5.90
2022-11-05T04:06:38.538Z,5.88
2022-11-05T04:12:00.399Z,5.90
2022-11-05T04:17:09.798Z,5.94
2022-11-05T04:22:31.928Z,5.95
2022-11-05T04:27:35.437Z,5.97
2022-11-05T04:32:38.204Z,5.98
2022-11-05T04:37:41.047Z,6.00
2022-11-05T04:42:43.911Z,5.98
2022-11-05T04:47:46.713Z,6.00
2022-11-05T04:52:49.618Z,6.01
2022-11-05T04:57:54.427Z,6.00
2022-11-05T05:02:57.366Z,6.03
2022-11-05T05:08:04.953Z,6.10
2022-11-05T05:13:10.479Z,6.13
2022-11-05T05:18:13.496Z,6.13
2022-11-05T05:23:16.351Z,6.18
2022-11-05T05:28:19.208Z,6.24
2022-11-05T05:33:22.099Z,6.24
2022-11-05T05:38:25.259Z,6.26
2022-11-05T05:43:31.415Z,6.29
2022-11-05T05:48:34.754Z,6.32
2022-11-05T05:53:38.388Z,6.30
2022-11-05T05:58:41.593Z,6.33
2022-11-05T06:03:44.368Z,6.40
2022-11-05T06:08:48.175Z,6.42
2022-11-05T06:13:51.221Z,6.43
2022-11-05T06:18:54.131Z,6.46
2022-11-05T06:23:57.006Z,6.52
2022-11-05T06:28:59.818Z,6.52
2022-11-05T06:34:02.909Z,6.55
2022-11-05T06:39:09.618Z,6.61
2022-11-05T06:44:12.477Z,6.63
2022-11-05T06:49:15.348Z,6.65
2022-11-05T06:54:18.281Z,6.72
2022-11-05T06:59:21.135Z,6.80
2022-11-05T07:04:23.931Z,6.88
2022-11-05T07:09:28.394Z,6.91
2022-11-05T07:14:31.194Z,6.94
2022-11-05T07:19:34.088Z,6.99
2022-11-05T07:24:37.266Z,6.99
2022-11-05T07:29:39.996Z,6.97
2022-11-05T07:34:43.126Z,6.98
2022-11-05T07:39:45.990Z,7.00
2022-11-05T07:44:48.810Z,7.00
2022-11-05T07:49:51.621Z,7.00
2022-11-05T07:54:54.471Z,7.02
2022-11-05T07:59:57.317Z,7.05
2022-11-05T08:05:00.129Z,7.10
2022-11-05T08:10:04.428Z,7.10
2022-11-05T08:15:08.462Z,7.13
2022-11-05T08:20:12.795Z,7.20
2022-11-05T08:25:15.681Z,7.28
2022-11-05T08:30:18.532Z,7.31
2022-11-05T08:35:21.340Z,7.33
2022-11-05T08:40:24.403Z,7.39
2022-11-05T08:45:27.837Z,7.47
2022-11-05T08:50:32.045Z,7.51
2022-11-05T08:55:35.251Z,7.52
2022-11-05T09:00:38.755Z,7.55
2022-11-05T09:05:43.061Z,7.60
2022-11-05T09:10:47.450Z,7.64
2022-11-05T09:15:51.336Z,7.68
2022-11-05T09:20:54.378Z,7.77
2022-11-05T09:25:57.208Z,7.83
2022-11-05T09:31:00.719Z,7.92
2022-11-05T09:36:04.528Z,7.99
2022-11-05T09:41:17.552Z,8.04
2022-11-05T09:46:24.168Z,8.08
2022-11-05T09:51:27.008Z,8.12
2022-11-05T09:56:33.963Z,8.19
2022-11-05T10:01:38.429Z,8.24
2022-11-05T10:06:49.476Z,8.29
2022-11-05T10:11:59.017Z,8.34
2022-11-05T10:17:11.822Z,8.38
2022-11-05T10:22:17.164Z,8.46
2022-11-05T10:27:29.208Z,8.55
2022-11-05T10:32:38.428Z,8.69
2022-11-05T10:37:41.530Z,8.77
2022-11-05T10:42:53.246Z,8.84
2022-11-05T10:48:43.991Z,8.91
2022-11-05T10:54:01.577Z,8.94
2022-11-05T10:59:20.219Z,9.03
2022-11-05T11:04:26.383Z,9.07
2022-11-05T11:09:33.268Z,9.06
2022-11-05T11:14:36.203Z,9.02
2022-11-05T11:19:39.139Z,9.01
2022-11-05T11:24:45.275Z,8.97
2022-11-05T11:29:54.630Z,8.92
2022-11-05T11:34:58.558Z,9.10
2022-11-05T11:40:29.297Z,9.23
2022-11-05T11:45:36.905Z,9.27
2022-11-05T11:50:45.383Z,9.25
2022-11-05T11:55:59.092Z,9.22
2022-11-05T12:01:31.387Z,9.32
2022-11-05T12:06:59.104Z,9.48
2022-11-05T12:12:14.172Z,9.52
2022-11-05T12:17:19.748Z,9.66
2022-11-05T12:22:50.779Z,9.80
2022-11-05T12:28:12.282Z,9.72
2022-11-05T12:33:33.979Z,9.56
2022-11-05T12:38:53.344Z,9.37
2022-11-05T12:44:24.221Z,9.20
2022-11-05T12:49:44.465Z,9.09
2022-11-05T12:55:05.854Z,8.98
2022-11-05T13:00:18.095Z,8.93
2022-11-05T13:05:39.287Z,8.84
2022-11-05T13:11:11.828Z,8.77
2022-11-05T13:16:26.310Z,8.71
2022-11-05T13:21:30.252Z,8.70
2022-11-05T13:26:44.476Z,8.67
2022-11-05T13:31:59.089Z,8.65
2022-11-05T13:37:23.902Z,8.66
2022-11-05T13:42:26.715Z,8.63
2022-11-05T13:47:54.095Z,8.67
2022-11-05T13:53:02.921Z,8.70
2022-11-05T13:58:28.647Z,8.68
2022-11-05T14:03:31.880Z,8.62
2022-11-05T14:08:46.470Z,8.58
2022-11-05T14:13:54.816Z,8.52
2022-11-05T14:19:19.324Z,8.48
2022-11-05T14:24:22.160Z,8.49
2022-11-05T14:29:25.092Z,8.49
2022-11-05T14:34:55.419Z,8.48
2022-11-05T14:40:22.500Z,8.47
2022-11-05T14:45:34.401Z,8.48
2022-11-05T14:50:40.799Z,8.43
2022-11-05T14:55:44.322Z,8.35
2022-11-05T15:00:48.280Z,8.32
2022-11-05T15:05:53.520Z,8.30
2022-11-05T15:11:18.663Z,8.27
2022-11-05T15:16:30.901Z,8.24
2022-11-05T15:21:38.191Z,8.20
2022-11-05T15:27:04.831Z,8.14
2022-11-05T15:32:17.559Z,8.12
2022-11-05T15:37:24.251Z,8.08
2022-11-05T15:42:27.792Z,8.03
2022-11-05T15:47:36.801Z,8.00
2022-11-05T15:52:54.715Z,8.00
2022-11-05T15:58:05.423Z,7.98
2022-11-05T16:03:22.413Z,7.97
2022-11-05T16:08:28.028Z,7.95
2022-11-05T16:13:30.829Z,7.94
2022-11-05T16:18:37.757Z,7.97
2022-11-05T16:23:43.401Z,7.98
2022-11-05T16:28:51.242Z,7.95
2022-11-05T16:33:54.837Z,7.95
2022-11-05T16:38:58.873Z,7.98
2022-11-05T16:44:03.146Z,7.98
2022-11-05T16:49:06.011Z,7.98
2022-11-05T16:54:08.849Z,7.97
2022-11-05T16:59:13.385Z,7.89
2022-11-05T17:04:16.221Z,7.82
2022-11-05T17:09:19.122Z,7.83
2022-11-05T17:14:21.987Z,7.83
2022-11-05T17:19:24.809Z,7.82
2022-11-05T17:24:27.634Z,7.85
2022-11-05T17:29:30.490Z,7.87
2022-11-05T17:34:33.292Z,7.82
2022-11-05T17:39:36.170Z,7.80
2022-11-05T17:44:38.973Z,7.76
2022-11-05T17:49:41.816Z,7.73
2022-11-05T17:54:44.670Z,7.76
2022-11-05T17:59:47.524Z,7.74
2022-11-05T18:04:50.366Z,7.69
2022-11-05T18:09:53.163Z,7.68
2022-11-05T18:14:55.997Z,7.65
2022-11-05T18:19:58.861Z,7.58
2022-11-05T18:25:01.837Z,7.55
2022-11-05T18:30:05.453Z,7.49
2022-11-05T18:35:08.954Z,7.42
2022-11-05T18:40:12.563Z,7.34
2022-11-05T18:45:15.410Z,7.31
2022-11-05T18:50:18.199Z,7.28
2022-11-05T18:55:21.085Z,7.24
2022-11-05T19:00:23.962Z,7.19
2022-11-05T19:05:29.377Z,7.18
2022-11-05T19:10:32.753Z,7.15
2022-11-05T19:15:35.585Z,7.10
2022-11-05T19:20:39.244Z,7.04
2022-11-05T19:25:42.134Z,7.00
2022-11-05T19:30:45.306Z,6.98
2022-11-05T19:35:48.004Z,6.95
2022-11-05T19:40:50.881Z,6.90
2022-11-05T19:45:53.710Z,6.86
2022-11-05T19:50:56.535Z,6.87
2022-11-05T19:55:59.355Z,6.86
2022-11-05T20:01:02.325Z,6.80
2022-11-05T20:06:17.716Z,6.82
2022-11-05T20:11:20.625Z,6.78
2022-11-05T20:16:27.503Z,6.73
2022-11-05T20:21:30.416Z,6.64
2022-11-05T20:26:34.143Z,6.57
2022-11-05T20:31:37.032Z,6.54
2022-11-05T20:36:40.102Z,6.51
2022-11-05T20:41:43.046Z,6.47
2022-11-05T20:46:45.958Z,6.44
2022-11-05T20:51:48.839Z,6.43
2022-11-05T20:56:51.672Z,6.41
2022-11-05T21:01:54.681Z,6.41
2022-11-05T21:06:57.582Z,6.43
2022-11-05T21:12:12.650Z,6.49
2022-11-05T21:17:15.524Z,6.49
2022-11-05T21:22:18.507Z,6.48
2022-11-05T21:27:21.336Z,6.43
2022-11-05T21:32:24.088Z,6.35
2022-11-05T21:37:27.312Z,6.30
2022-11-05T21:42:30.191Z,6.21
2022-11-05T21:47:33.303Z,6.12
2022-11-05T21:52:54.925Z,6.04
2022-11-05T21:58:18.338Z,5.93
2022-11-05T22:03:21.050Z,5.83
2022-11-05T22:08:23.892Z,5.74
2022-11-05T22:13:26.718Z,5.63
2022-11-05T22:18:29.628Z,5.54
2022-11-05T22:23:32.407Z,5.47
2022-11-05T22:28:35.247Z,5.43
2022-11-05T22:33:38.054Z,5.40
2022-11-05T22:38:41.180Z,5.32
2022-11-05T22:43:44.445Z,5.20
2022-11-05T22:48:47.196Z,5.08
2022-11-05T22:53:51.345Z,4.96
2022-11-05T22:58:54.856Z,4.87
2022-11-05T23:03:59.002Z,4.83
2022-11-05T23:09:22.960Z,4.80
2022-11-05T23:14:26.625Z,4.76
2022-11-05T23:19:49.063Z,4.71
2022-11-05T23:24:51.928Z,4.68
2022-11-05T23:29:58.583Z,4.68
2022-11-05T23:35:01.462Z,4.65
2022-11-05T23:40:07.990Z,4.60
2022-11-05T23:45:30.207Z,4.53
2022-11-05T23:50:37.120Z,4.41
2022-11-05T23:55:43.096Z,4.39
